ADDS METAR Data INFO
IDs: Format: Raw Decoded Include TAF

Data at: 0727 UTC 16 Jan 2018

METAR for:PAAK (Atka Arpt, AK, US)
Text:PAAK 160656Z AUTO 29018G24KT 10SM FEW042 SCT049 OVC060 01/M06 A2963 RMK AO2 UPB14E16SNB16E27 SLP036 P0000 T00061056 FZRANO
Temperature: 0.6°C ( 33°F)
Dewpoint: -5.6°C ( 22°F) [RH = 63%]
Pressure (altimeter):29.63 inches Hg (1003.5 mb) [Sea level pressure: 1003.6 mb]
Winds:from the WNW (290 degrees) at 21 MPH (18 knots; 9.3 m/s) gusting to 28 MPH (24 knots; 12.3 m/s)
Visibility:10 or more sm (16+ km)
Ceiling:6000 feet AGL
Clouds: few clouds at 4200 feet AGL, scattered clouds at 4900 feet AGL, overcast cloud deck at 6000 feet AGL
QC Flag:automated observation with no human augmentation
Text:PAAK 160556Z AUTO 31015G21KT 10SM SCT045 BKN055 01/M06 A2962 RMK AO2 SNE28 SLP031 P0000 60000 T00061061 10011 21011 51024 FZRANO
Temperature: 0.6°C ( 33°F)
Dewpoint: -6.1°C ( 21°F) [RH = 61%]
Pressure (altimeter):29.62 inches Hg (1003.1 mb) [Sea level pressure: 1003.1 mb]
Winds:from the NW (310 degrees) at 17 MPH (15 knots; 7.7 m/s) gusting to 24 MPH (21 knots; 10.8 m/s)
Visibility:10 or more sm (16+ km)
Ceiling:5500 feet AGL
Clouds: scattered clouds at 4500 feet AGL, broken clouds at 5500 feet AGL
QC Flag:automated observation with no human augmentation
Text:PAAK 160507Z AUTO 30013KT 4SM -SN BR FEW009 BKN030 OVC035 M01/M03 A2960 RMK AO2 P0000 FZRANO
Temperature: -1.0°C ( 30°F)
Dewpoint: -3.0°C ( 27°F) [RH = 86%]
Pressure (altimeter):29.60 inches Hg (1002.5 mb)
Winds:from the WNW (300 degrees) at 15 MPH (13 knots; 6.7 m/s)
Visibility: 4 sm ( 6 km)
Ceiling:3000 feet AGL
Clouds: few clouds at 900 feet AGL, broken clouds at 3000 feet AGL, overcast cloud deck at 3500 feet AGL
Weather:-SN BR (light snow, mist)
QC Flag:automated observation with no human augmentation
Text:PAAK 160459Z AUTO 29016KT 2SM -SN BR FEW009 SCT021 BKN034 M01/M02 A2959 RMK AO2 P0000 FZRANO
Temperature: -1.0°C ( 30°F)
Dewpoint: -2.0°C ( 28°F) [RH = 93%]
Pressure (altimeter):29.59 inches Hg (1002.1 mb)
Winds:from the WNW (290 degrees) at 18 MPH (16 knots; 8.2 m/s)
Visibility: 2.00 sm ( 3.22 km)
Ceiling:3400 feet AGL
Clouds: few clouds at 900 feet AGL, scattered clouds at 2100 feet AGL, broken clouds at 3400 feet AGL
Weather:-SN BR (light snow, mist)
QC Flag:automated observation with no human augmentation
Text:PAAK 160456Z AUTO 29014G26KT 1 1/2SM -SN BR FEW009 SCT021 BKN028 M01/M02 A2959 RMK AO2 PK WND 31027/0411 UPB08E13SNB13 SLP022 P0000 T10111022 FZRANO
Temperature: -1.1°C ( 30°F)
Dewpoint: -2.2°C ( 28°F) [RH = 92%]
Pressure (altimeter):29.59 inches Hg (1002.1 mb) [Sea level pressure: 1002.2 mb]
Winds:from the WNW (290 degrees) at 16 MPH (14 knots; 7.2 m/s) gusting to 30 MPH (26 knots; 13.4 m/s)
Visibility: 1.50 sm ( 2.41 km)
Ceiling:2800 feet AGL
Clouds: few clouds at 900 feet AGL, scattered clouds at 2100 feet AGL, broken clouds at 2800 feet AGL
Weather:-SN BR (light snow, mist)
QC Flag:automated observation with no human augmentation
Text:PAAK 160454Z AUTO 29014G26KT 1 1/2SM -SN BR FEW009 SCT021 BKN030 M01/M03 A2959 RMK AO2 PK WND 31027/0411 UPB08E13SNB13 P0000 FZRANO
Temperature: -1.0°C ( 30°F)
Dewpoint: -3.0°C ( 27°F) [RH = 86%]
Pressure (altimeter):29.59 inches Hg (1002.1 mb)
Winds:from the WNW (290 degrees) at 16 MPH (14 knots; 7.2 m/s) gusting to 30 MPH (26 knots; 13.4 m/s)
Visibility: 1.50 sm ( 2.41 km)
Ceiling:3000 feet AGL
Clouds: few clouds at 900 feet AGL, scattered clouds at 2100 feet AGL, broken clouds at 3000 feet AGL
Weather:-SN BR (light snow, mist)
QC Flag:automated observation with no human augmentation
Text:PAAK 160450Z AUTO 30019G26KT 2SM -SN BR FEW009 SCT021 BKN028 M01/M03 A2960 RMK AO2 PK WND 31027/0411 UPB08E13SNB13 P0000 FZRANO
Temperature: -1.0°C ( 30°F)
Dewpoint: -3.0°C ( 27°F) [RH = 86%]
Pressure (altimeter):29.60 inches Hg (1002.5 mb)
Winds:from the WNW (300 degrees) at 22 MPH (19 knots; 9.8 m/s) gusting to 30 MPH (26 knots; 13.4 m/s)
Visibility: 2.00 sm ( 3.22 km)
Ceiling:2800 feet AGL
Clouds: few clouds at 900 feet AGL, scattered clouds at 2100 feet AGL, broken clouds at 2800 feet AGL
Weather:-SN BR (light snow, mist)
QC Flag:automated observation with no human augmentation
Text:PAAK 160446Z AUTO 31017G25KT 9SM -SN FEW010 SCT023 BKN036 00/M03 A2959 RMK AO2 PK WND 31027/0411 UPB08E13SNB13 P0000 FZRANO
Temperature: 0.0°C ( 32°F)
Dewpoint: -3.0°C ( 27°F) [RH = 80%]
Pressure (altimeter):29.59 inches Hg (1002.1 mb)
Winds:from the NW (310 degrees) at 20 MPH (17 knots; 8.7 m/s) gusting to 29 MPH (25 knots; 12.9 m/s)
Visibility: 9 sm ( 14 km)
Ceiling:3600 feet AGL
Clouds: few clouds at 1000 feet AGL, scattered clouds at 2300 feet AGL, broken clouds at 3600 feet AGL
Weather:-SN (light snow)
QC Flag:automated observation with no human augmentation
Text:PAAK 160434Z AUTO 31010G16KT 9SM -SN FEW008 SCT015 BKN024 M01/M03 A2959 RMK AO2 PK WND 31027/0411 UPB08E13SNB13 P0000 FZRANO
Temperature: -1.0°C ( 30°F)
Dewpoint: -3.0°C ( 27°F) [RH = 86%]
Pressure (altimeter):29.59 inches Hg (1002.1 mb)
Winds:from the NW (310 degrees) at 12 MPH (10 knots; 5.1 m/s) gusting to 18 MPH (16 knots; 8.2 m/s)
Visibility: 9 sm ( 14 km)
Ceiling:2400 feet AGL
Clouds: few clouds at 800 feet AGL, scattered clouds at 1500 feet AGL, broken clouds at 2400 feet AGL
Weather:-SN (light snow)
QC Flag:automated observation with no human augmentation
Text:PAAK 160428Z AUTO 31011KT 2SM -SN BR SCT010 BKN024 OVC032 M01/M02 A2959 RMK AO2 PK WND 31027/0411 UPB08E13SNB13 P0000 FZRANO
Temperature: -1.0°C ( 30°F)
Dewpoint: -2.0°C ( 28°F) [RH = 93%]
Pressure (altimeter):29.59 inches Hg (1002.1 mb)
Winds:from the NW (310 degrees) at 13 MPH (11 knots; 5.7 m/s)
Visibility: 2.00 sm ( 3.22 km)
Ceiling:2400 feet AGL
Clouds: scattered clouds at 1000 feet AGL, broken clouds at 2400 feet AGL, overcast cloud deck at 3200 feet AGL
Weather:-SN BR (light snow, mist)
QC Flag:automated observation with no human augmentation
Text:PAAK 160425Z AUTO 31012G24KT 1SM -SN BR SCT010 BKN019 BKN025 M01/M02 A2959 RMK AO2 PK WND 31027/0411 UPB08E13SNB13 P0000 FZRANO
Temperature: -1.0°C ( 30°F)
Dewpoint: -2.0°C ( 28°F) [RH = 93%]
Pressure (altimeter):29.59 inches Hg (1002.1 mb)
Winds:from the NW (310 degrees) at 14 MPH (12 knots; 6.2 m/s) gusting to 28 MPH (24 knots; 12.3 m/s)
Visibility: 1.00 sm ( 1.61 km)
Ceiling:1900 feet AGL
Clouds: scattered clouds at 1000 feet AGL, broken clouds at 1900 feet AGL, broken clouds at 2500 feet AGL
Weather:-SN BR (light snow, mist)
QC Flag:automated observation with no human augmentation
Text:PAAK 160419Z AUTO 31017G27KT 1/2SM -SN FZFG SCT008 BKN019 BKN025 M01/M02 A2959 RMK AO2 PK WND 31027/0411 UPB08E13SNB13 P0000 FZRANO
Temperature: -1.0°C ( 30°F)
Dewpoint: -2.0°C ( 28°F) [RH = 93%]
Pressure (altimeter):29.59 inches Hg (1002.1 mb)
Winds:from the NW (310 degrees) at 20 MPH (17 knots; 8.7 m/s) gusting to 31 MPH (27 knots; 13.9 m/s)
Visibility: 0.50 sm ( 0.80 km)
Ceiling:1900 feet AGL
Clouds: scattered clouds at 800 feet AGL, broken clouds at 1900 feet AGL, broken clouds at 2500 feet AGL
Weather:-SN FZFG (light snow, freezing fog)
QC Flag:automated observation with no human augmentation
Text:PAAK 160415Z AUTO 30018G27KT 1SM -SN BR FEW008 SCT019 BKN025 M01/M02 A2959 RMK AO2 PK WND 31027/0411 UPB08E13SNB13 P0000 FZRANO
Temperature: -1.0°C ( 30°F)
Dewpoint: -2.0°C ( 28°F) [RH = 93%]
Pressure (altimeter):29.59 inches Hg (1002.1 mb)
Winds:from the WNW (300 degrees) at 21 MPH (18 knots; 9.3 m/s) gusting to 31 MPH (27 knots; 13.9 m/s)
Visibility: 1.00 sm ( 1.61 km)
Ceiling:2500 feet AGL
Clouds: few clouds at 800 feet AGL, scattered clouds at 1900 feet AGL, broken clouds at 2500 feet AGL
Weather:-SN BR (light snow, mist)
QC Flag:automated observation with no human augmentation
Text:PAAK 160413Z AUTO 30019G27KT 1 1/2SM -SN BR FEW019 SCT024 BKN033 M01/M02 A2958 RMK AO2 PK WND 31027/0411 UPB08E13SNB13 P0000 FZRANO
Temperature: -1.0°C ( 30°F)
Dewpoint: -2.0°C ( 28°F) [RH = 93%]
Pressure (altimeter):29.58 inches Hg (1001.8 mb)
Winds:from the WNW (300 degrees) at 22 MPH (19 knots; 9.8 m/s) gusting to 31 MPH (27 knots; 13.9 m/s)
Visibility: 1.50 sm ( 2.41 km)
Ceiling:3300 feet AGL
Clouds: few clouds at 1900 feet AGL, scattered clouds at 2400 feet AGL, broken clouds at 3300 feet AGL
Weather:-SN BR (light snow, mist)
QC Flag:automated observation with no human augmentation
Text:PAAK 160356Z AUTO 31014KT 10SM FEW022 00/M03 A2958 RMK AO2 UPB42E50SNB26E42 SLP017 P0000 T00001033 FZRANO
Temperature: 0.0°C ( 32°F)
Dewpoint: -3.3°C ( 26°F) [RH = 78%]
Pressure (altimeter):29.58 inches Hg (1001.8 mb) [Sea level pressure: 1001.7 mb]
Winds:from the NW (310 degrees) at 16 MPH (14 knots; 7.2 m/s)
Visibility:10 or more sm (16+ km)
Ceiling:at least 12,000 feet AGL
Clouds: few clouds at 2200 feet AGL
QC Flag:automated observation with no human augmentation
Text:PAAK 160256Z AUTO 32011KT 10SM FEW042 SCT055 01/M04 A2955 RMK AO2 RAB26E29SNB29E50 SLP007 P0000 60000 T00061039 53023 FZRANO
Temperature: 0.6°C ( 33°F)
Dewpoint: -3.9°C ( 25°F) [RH = 72%]
Pressure (altimeter):29.55 inches Hg (1000.8 mb) [Sea level pressure: 1000.7 mb]
Winds:from the NW (320 degrees) at 13 MPH (11 knots; 5.7 m/s)
Visibility:10 or more sm (16+ km)
Ceiling:at least 12,000 feet AGL
Clouds: few clouds at 4200 feet AGL, scattered clouds at 5500 feet AGL
QC Flag:automated observation with no human augmentation
Text:PAAK 160156Z AUTO 31005KT 10SM SCT042 SCT050 01/M04 A2951 RMK AO2 SLP996 T00111044 FZRANO
Temperature: 1.1°C ( 34°F)
Dewpoint: -4.4°C ( 24°F) [RH = 67%]
Pressure (altimeter):29.51 inches Hg ( 999.4 mb) [Sea level pressure: 999.6 mb]
Winds:from the NW (310 degrees) at 6 MPH (5 knots; 2.6 m/s)
Visibility:10 or more sm (16+ km)
Ceiling:at least 12,000 feet AGL
Clouds: scattered clouds at 4200 feet AGL, scattered clouds at 5000 feet AGL
QC Flag:automated observation with no human augmentation

TAF for:PAAK (Atka Arpt, AK, US)
Text:No data found